sensor_id;sensor_type;location;lat;lon;timestamp;temperature;humidity
84114;DHT22;74209;48.846;2.358;2023-11-21T00:01:57;23.00;29.50
84114;DHT22;74209;48.846;2.358;2023-11-21T00:04:24;23.00;29.50
84114;DHT22;74209;48.846;2.358;2023-11-21T00:06:50;23.00;29.50
84114;DHT22;74209;48.846;2.358;2023-11-21T00:09:16;23.00;29.50
84114;DHT22;74209;48.846;2.358;2023-11-21T00:11:43;23.00;29.50
84114;DHT22;74209;48.846;2.358;2023-11-21T00:14:10;23.00;29.50
84114;DHT22;74209;48.846;2.358;2023-11-21T00:16:36;23.00;29.40
84114;DHT22;74209;48.846;2.358;2023-11-21T00:19:01;23.00;29.50
84114;DHT22;74209;48.846;2.358;2023-11-21T00:21:27;23.00;29.40
84114;DHT22;74209;48.846;2.358;2023-11-21T00:23:53;23.00;29.40
84114;DHT22;74209;48.846;2.358;2023-11-21T00:26:18;23.00;29.40
84114;DHT22;74209;48.846;2.358;2023-11-21T00:28:44;23.00;29.40
84114;DHT22;74209;48.846;2.358;2023-11-21T00:31:10;23.00;29.40
84114;DHT22;74209;48.846;2.358;2023-11-21T00:33:36;23.00;29.40
84114;DHT22;74209;48.846;2.358;2023-11-21T00:36:02;23.00;29.40
84114;DHT22;74209;48.846;2.358;2023-11-21T00:38:27;23.00;29.40
84114;DHT22;74209;48.846;2.358;2023-11-21T00:40:53;23.00;29.40
84114;DHT22;74209;48.846;2.358;2023-11-21T00:43:22;23.00;29.40
84114;DHT22;74209;48.846;2.358;2023-11-21T00:45:48;23.00;29.40
84114;DHT22;74209;48.846;2.358;2023-11-21T00:48:14;23.00;29.40
84114;DHT22;74209;48.846;2.358;2023-11-21T00:50:40;23.00;29.30
84114;DHT22;74209;48.846;2.358;2023-11-21T00:53:06;23.00;29.40
84114;DHT22;74209;48.846;2.358;2023-11-21T00:55:33;23.00;29.30
84114;DHT22;74209;48.846;2.358;2023-11-21T00:57:58;23.00;29.30
84114;DHT22;74209;48.846;2.358;2023-11-21T01:00:25;23.00;29.30
84114;DHT22;74209;48.846;2.358;2023-11-21T01:02:51;23.00;29.60
84114;DHT22;74209;48.846;2.358;2023-11-21T01:05:16;23.00;29.30
84114;DHT22;74209;48.846;2.358;2023-11-21T01:07:42;23.00;29.30
84114;DHT22;74209;48.846;2.358;2023-11-21T01:10:08;23.00;29.30
84114;DHT22;74209;48.846;2.358;2023-11-21T01:12:36;23.00;29.20
84114;DHT22;74209;48.846;2.358;2023-11-21T01:15:05;23.00;29.30
84114;DHT22;74209;48.846;2.358;2023-11-21T01:17:34;23.00;29.20
84114;DHT22;74209;48.846;2.358;2023-11-21T01:20:04;23.00;29.20
84114;DHT22;74209;48.846;2.358;2023-11-21T01:22:37;23.00;29.20
84114;DHT22;74209;48.846;2.358;2023-11-21T01:25:03;23.00;29.20
84114;DHT22;74209;48.846;2.358;2023-11-21T01:27:32;23.00;29.20
84114;DHT22;74209;48.846;2.358;2023-11-21T01:29:58;23.00;29.10
84114;DHT22;74209;48.846;2.358;2023-11-21T01:32:23;23.00;29.10
84114;DHT22;74209;48.846;2.358;2023-11-21T01:34:50;23.00;29.10
84114;DHT22;74209;48.846;2.358;2023-11-21T01:37:16;22.90;29.20
84114;DHT22;74209;48.846;2.358;2023-11-21T01:39:43;22.90;29.10
84114;DHT22;74209;48.846;2.358;2023-11-21T01:42:09;23.00;29.10
84114;DHT22;74209;48.846;2.358;2023-11-21T01:44:35;22.90;29.00
84114;DHT22;74209;48.846;2.358;2023-11-21T01:47:01;23.00;29.10
84114;DHT22;74209;48.846;2.358;2023-11-21T01:49:34;22.90;29.10
84114;DHT22;74209;48.846;2.358;2023-11-21T01:52:01;23.00;29.10
84114;DHT22;74209;48.846;2.358;2023-11-21T01:54:27;23.00;29.00
84114;DHT22;74209;48.846;2.358;2023-11-21T01:56:57;23.00;29.00
84114;DHT22;74209;48.846;2.358;2023-11-21T01:59:30;22.90;29.00
84114;DHT22;74209;48.846;2.358;2023-11-21T02:01:56;23.00;29.00
84114;DHT22;74209;48.846;2.358;2023-11-21T02:04:22;22.90;29.00
84114;DHT22;74209;48.846;2.358;2023-11-21T02:06:47;22.90;29.00
84114;DHT22;74209;48.846;2.358;2023-11-21T02:09:13;23.00;29.10
84114;DHT22;74209;48.846;2.358;2023-11-21T02:11:41;22.90;29.00
84114;DHT22;74209;48.846;2.358;2023-11-21T02:14:06;23.00;29.60
84114;DHT22;74209;48.846;2.358;2023-11-21T02:16:34;22.90;28.90
84114;DHT22;74209;48.846;2.358;2023-11-21T02:19:01;22.90;29.00
84114;DHT22;74209;48.846;2.358;2023-11-21T02:21:29;22.90;29.00
84114;DHT22;74209;48.846;2.358;2023-11-21T02:23:56;22.90;28.90
84114;DHT22;74209;48.846;2.358;2023-11-21T02:26:21;22.90;28.90
84114;DHT22;74209;48.846;2.358;2023-11-21T02:28:47;22.90;28.90
84114;DHT22;74209;48.846;2.358;2023-11-21T02:31:13;22.90;28.90
84114;DHT22;74209;48.846;2.358;2023-11-21T02:33:38;23.00;28.80
84114;DHT22;74209;48.846;2.358;2023-11-21T02:36:04;22.90;28.90
84114;DHT22;74209;48.846;2.358;2023-11-21T02:38:31;22.90;28.90
84114;DHT22;74209;48.846;2.358;2023-11-21T02:40:57;22.90;28.90
84114;DHT22;74209;48.846;2.358;2023-11-21T02:43:24;22.90;28.80
84114;DHT22;74209;48.846;2.358;2023-11-21T02:45:50;22.90;28.80
84114;DHT22;74209;48.846;2.358;2023-11-21T02:48:15;22.80;28.70
84114;DHT22;74209;48.846;2.358;2023-11-21T02:50:41;22.90;28.80
84114;DHT22;74209;48.846;2.358;2023-11-21T02:53:08;22.90;28.80
84114;DHT22;74209;48.846;2.358;2023-11-21T02:55:36;22.90;28.70
84114;DHT22;74209;48.846;2.358;2023-11-21T02:58:02;22.90;28.80
84114;DHT22;74209;48.846;2.358;2023-11-21T03:00:31;22.90;28.80
84114;DHT22;74209;48.846;2.358;2023-11-21T03:02:57;23.00;28.70
84114;DHT22;74209;48.846;2.358;2023-11-21T03:05:23;23.00;28.70
84114;DHT22;74209;48.846;2.358;2023-11-21T03:07:48;23.00;28.70
84114;DHT22;74209;48.846;2.358;2023-11-21T03:10:14;22.90;28.70
84114;DHT22;74209;48.846;2.358;2023-11-21T03:12:39;23.00;28.70
84114;DHT22;74209;48.846;2.358;2023-11-21T03:15:06;22.90;28.70
84114;DHT22;74209;48.846;2.358;2023-11-21T03:17:32;23.00;28.70
84114;DHT22;74209;48.846;2.358;2023-11-21T03:20:00;22.90;28.70
84114;DHT22;74209;48.846;2.358;2023-11-21T03:22:26;22.90;28.70
84114;DHT22;74209;48.846;2.358;2023-11-21T03:24:52;23.00;28.70
84114;DHT22;74209;48.846;2.358;2023-11-21T03:27:18;22.90;28.70
84114;DHT22;74209;48.846;2.358;2023-11-21T03:29:44;23.00;28.70
84114;DHT22;74209;48.846;2.358;2023-11-21T03:32:12;22.90;28.60
84114;DHT22;74209;48.846;2.358;2023-11-21T03:34:56;23.00;28.70
84114;DHT22;74209;48.846;2.358;2023-11-21T03:37:23;23.00;28.60
84114;DHT22;74209;48.846;2.358;2023-11-21T03:39:48;23.00;28.70
84114;DHT22;74209;48.846;2.358;2023-11-21T03:42:14;22.90;28.70
84114;DHT22;74209;48.846;2.358;2023-11-21T03:44:40;23.00;28.70
84114;DHT22;74209;48.846;2.358;2023-11-21T03:47:05;23.00;28.70
84114;DHT22;74209;48.846;2.358;2023-11-21T03:49:31;23.00;28.60
84114;DHT22;74209;48.846;2.358;2023-11-21T03:51:57;23.00;28.60
84114;DHT22;74209;48.846;2.358;2023-11-21T03:54:22;22.90;29.30
84114;DHT22;74209;48.846;2.358;2023-11-21T03:56:48;23.00;28.60
84114;DHT22;74209;48.846;2.358;2023-11-21T03:59:14;23.00;28.50
84114;DHT22;74209;48.846;2.358;2023-11-21T04:01:40;22.90;28.60
84114;DHT22;74209;48.846;2.358;2023-11-21T04:04:05;23.00;28.50
84114;DHT22;74209;48.846;2.358;2023-11-21T04:06:31;23.00;28.60
84114;DHT22;74209;48.846;2.358;2023-11-21T04:08:58;23.00;28.60
84114;DHT22;74209;48.846;2.358;2023-11-21T04:11:24;22.90;28.60
84114;DHT22;74209;48.846;2.358;2023-11-21T04:13:49;23.00;28.60
84114;DHT22;74209;48.846;2.358;2023-11-21T04:16:15;23.00;28.50
84114;DHT22;74209;48.846;2.358;2023-11-21T04:18:41;22.90;28.60
84114;DHT22;74209;48.846;2.358;2023-11-21T04:21:07;22.90;28.60
84114;DHT22;74209;48.846;2.358;2023-11-21T04:23:33;22.90;28.50
84114;DHT22;74209;48.846;2.358;2023-11-21T04:25:59;22.90;28.60
84114;DHT22;74209;48.846;2.358;2023-11-21T04:28:24;22.90;28.60
84114;DHT22;74209;48.846;2.358;2023-11-21T04:30:50;22.90;28.60
84114;DHT22;74209;48.846;2.358;2023-11-21T04:33:16;22.90;28.70
84114;DHT22;74209;48.846;2.358;2023-11-21T04:35:42;22.90;28.60
84114;DHT22;74209;48.846;2.358;2023-11-21T04:38:07;22.90;28.60
84114;DHT22;74209;48.846;2.358;2023-11-21T04:40:33;22.90;28.70
84114;DHT22;74209;48.846;2.358;2023-11-21T04:42:58;22.90;28.70
84114;DHT22;74209;48.846;2.358;2023-11-21T04:45:24;22.90;28.70
84114;DHT22;74209;48.846;2.358;2023-11-21T04:47:50;22.90;28.70
84114;DHT22;74209;48.846;2.358;2023-11-21T04:50:15;22.90;28.70
84114;DHT22;74209;48.846;2.358;2023-11-21T04:52:41;22.90;28.70
84114;DHT22;74209;48.846;2.358;2023-11-21T04:55:07;22.90;28.80
84114;DHT22;74209;48.846;2.358;2023-11-21T04:57:36;22.90;28.80
84114;DHT22;74209;48.846;2.358;2023-11-21T05:00:02;22.90;28.80
84114;DHT22;74209;48.846;2.358;2023-11-21T05:02:31;22.90;28.80
84114;DHT22;74209;48.846;2.358;2023-11-21T05:04:57;22.90;28.80
84114;DHT22;74209;48.846;2.358;2023-11-21T05:07:23;22.90;28.80
84114;DHT22;74209;48.846;2.358;2023-11-21T05:09:49;22.90;28.80
84114;DHT22;74209;48.846;2.358;2023-11-21T05:12:15;22.90;28.90
84114;DHT22;74209;48.846;2.358;2023-11-21T05:14:41;22.90;28.90
84114;DHT22;74209;48.846;2.358;2023-11-21T05:17:07;22.90;28.90
84114;DHT22;74209;48.846;2.358;2023-11-21T05:19:33;22.90;28.90
84114;DHT22;74209;48.846;2.358;2023-11-21T05:22:00;22.90;29.00
84114;DHT22;74209;48.846;2.358;2023-11-21T05:24:26;22.90;29.00
84114;DHT22;74209;48.846;2.358;2023-11-21T05:26:52;22.90;29.00
84114;DHT22;74209;48.846;2.358;2023-11-21T05:29:18;22.90;29.00
84114;DHT22;74209;48.846;2.358;2023-11-21T05:31:43;22.90;29.00
84114;DHT22;74209;48.846;2.358;2023-11-21T05:34:09;22.90;29.00
84114;DHT22;74209;48.846;2.358;2023-11-21T05:36:35;22.90;29.00
84114;DHT22;74209;48.846;2.358;2023-11-21T05:39:00;22.90;29.10
84114;DHT22;74209;48.846;2.358;2023-11-21T05:41:26;22.90;29.10
84114;DHT22;74209;48.846;2.358;2023-11-21T05:43:51;22.90;29.10
84114;DHT22;74209;48.846;2.358;2023-11-21T05:46:19;22.90;29.10
84114;DHT22;74209;48.846;2.358;2023-11-21T05:48:45;22.90;29.20
84114;DHT22;74209;48.846;2.358;2023-11-21T05:51:11;22.90;29.20
84114;DHT22;74209;48.846;2.358;2023-11-21T05:53:39;22.90;29.20
84114;DHT22;74209;48.846;2.358;2023-11-21T05:56:05;22.90;29.20
84114;DHT22;74209;48.846;2.358;2023-11-21T05:58:30;22.90;29.20
84114;DHT22;74209;48.846;2.358;2023-11-21T06:00:56;22.90;29.20
84114;DHT22;74209;48.846;2.358;2023-11-21T06:03:22;22.90;29.30
84114;DHT22;74209;48.846;2.358;2023-11-21T06:05:48;22.90;29.30
84114;DHT22;74209;48.846;2.358;2023-11-21T06:08:14;22.90;29.30
84114;DHT22;74209;48.846;2.358;2023-11-21T06:10:43;22.90;29.30
84114;DHT22;74209;48.846;2.358;2023-11-21T06:13:09;22.90;29.30
84114;DHT22;74209;48.846;2.358;2023-11-21T06:15:36;22.90;29.40
84114;DHT22;74209;48.846;2.358;2023-11-21T06:18:01;22.90;29.40
84114;DHT22;74209;48.846;2.358;2023-11-21T06:20:27;22.90;29.40
84114;DHT22;74209;48.846;2.358;2023-11-21T06:22:53;22.90;29.50
84114;DHT22;74209;48.846;2.358;2023-11-21T06:25:19;22.90;29.50
84114;DHT22;74209;48.846;2.358;2023-11-21T06:27:46;22.90;29.60
84114;DHT22;74209;48.846;2.358;2023-11-21T06:30:13;22.90;29.60
84114;DHT22;74209;48.846;2.358;2023-11-21T06:32:41;22.80;29.60
84114;DHT22;74209;48.846;2.358;2023-11-21T06:35:08;22.80;29.60
84114;DHT22;74209;48.846;2.358;2023-11-21T06:37:37;22.80;29.60
84114;DHT22;74209;48.846;2.358;2023-11-21T06:40:03;22.80;29.60
84114;DHT22;74209;48.846;2.358;2023-11-21T06:42:32;22.90;29.70
84114;DHT22;74209;48.846;2.358;2023-11-21T06:44:59;22.90;29.80
84114;DHT22;74209;48.846;2.358;2023-11-21T06:47:25;22.80;29.70
84114;DHT22;74209;48.846;2.358;2023-11-21T06:49:51;22.80;29.80
84114;DHT22;74209;48.846;2.358;2023-11-21T06:52:18;22.80;29.80
84114;DHT22;74209;48.846;2.358;2023-11-21T06:54:44;22.80;29.80
84114;DHT22;74209;48.846;2.358;2023-11-21T06:57:11;22.80;29.80
84114;DHT22;74209;48.846;2.358;2023-11-21T06:59:37;22.80;29.90
84114;DHT22;74209;48.846;2.358;2023-11-21T07:02:03;22.90;30.00
84114;DHT22;74209;48.846;2.358;2023-11-21T07:04:30;22.90;30.00
84114;DHT22;74209;48.846;2.358;2023-11-21T07:06:55;22.90;30.00
84114;DHT22;74209;48.846;2.358;2023-11-21T07:09:21;22.90;30.00
84114;DHT22;74209;48.846;2.358;2023-11-21T07:11:48;22.90;30.00
84114;DHT22;74209;48.846;2.358;2023-11-21T07:14:14;22.90;30.10
84114;DHT22;74209;48.846;2.358;2023-11-21T07:16:40;22.90;30.10
84114;DHT22;74209;48.846;2.358;2023-11-21T07:19:06;22.90;30.10
84114;DHT22;74209;48.846;2.358;2023-11-21T07:21:36;22.90;30.10
84114;DHT22;74209;48.846;2.358;2023-11-21T07:24:02;22.90;30.10
84114;DHT22;74209;48.846;2.358;2023-11-21T07:26:28;22.90;30.20
84114;DHT22;74209;48.846;2.358;2023-11-21T07:28:54;22.90;30.10
84114;DHT22;74209;48.846;2.358;2023-11-21T07:31:20;22.90;30.10
84114;DHT22;74209;48.846;2.358;2023-11-21T07:33:46;22.90;30.10
84114;DHT22;74209;48.846;2.358;2023-11-21T07:36:15;22.90;30.10
84114;DHT22;74209;48.846;2.358;2023-11-21T07:38:41;22.90;30.20
84114;DHT22;74209;48.846;2.358;2023-11-21T07:41:07;23.00;30.20
84114;DHT22;74209;48.846;2.358;2023-11-21T07:43:35;22.90;30.20
84114;DHT22;74209;48.846;2.358;2023-11-21T07:46:02;23.00;30.20
84114;DHT22;74209;48.846;2.358;2023-11-21T07:48:31;23.00;30.20
84114;DHT22;74209;48.846;2.358;2023-11-21T07:50:57;23.00;30.20
84114;DHT22;74209;48.846;2.358;2023-11-21T07:53:26;22.90;30.30
84114;DHT22;74209;48.846;2.358;2023-11-21T07:55:54;23.00;30.30
84114;DHT22;74209;48.846;2.358;2023-11-21T07:58:20;22.90;30.90
84114;DHT22;74209;48.846;2.358;2023-11-21T08:00:46;23.00;30.30
84114;DHT22;74209;48.846;2.358;2023-11-21T08:03:13;22.90;30.40
84114;DHT22;74209;48.846;2.358;2023-11-21T08:05:39;22.80;30.80
84114;DHT22;74209;48.846;2.358;2023-11-21T08:08:05;22.70;31.10
84114;DHT22;74209;48.846;2.358;2023-11-21T08:10:31;22.60;31.40
84114;DHT22;74209;48.846;2.358;2023-11-21T08:12:56;22.50;31.60
84114;DHT22;74209;48.846;2.358;2023-11-21T08:15:22;22.40;31.70
84114;DHT22;74209;48.846;2.358;2023-11-21T08:17:48;22.30;31.90
84114;DHT22;74209;48.846;2.358;2023-11-21T08:20:14;22.30;32.00
84114;DHT22;74209;48.846;2.358;2023-11-21T08:22:42;22.30;32.10
84114;DHT22;74209;48.846;2.358;2023-11-21T08:25:08;22.30;32.20
84114;DHT22;74209;48.846;2.358;2023-11-21T08:27:34;22.20;32.30
84114;DHT22;74209;48.846;2.358;2023-11-21T08:30:03;22.20;32.50
84114;DHT22;74209;48.846;2.358;2023-11-21T08:32:29;22.10;32.60
84114;DHT22;74209;48.846;2.358;2023-11-21T08:34:59;22.10;32.70
84114;DHT22;74209;48.846;2.358;2023-11-21T08:37:25;22.10;32.80
84114;DHT22;74209;48.846;2.358;2023-11-21T08:39:52;22.10;32.80
84114;DHT22;74209;48.846;2.358;2023-11-21T08:42:19;22.10;32.80
84114;DHT22;74209;48.846;2.358;2023-11-21T08:44:44;22.10;32.80
84114;DHT22;74209;48.846;2.358;2023-11-21T08:47:11;22.10;32.90
84114;DHT22;74209;48.846;2.358;2023-11-21T08:49:36;22.10;33.00
84114;DHT22;74209;48.846;2.358;2023-11-21T08:52:03;22.10;33.10
84114;DHT22;74209;48.846;2.358;2023-11-21T08:54:30;22.10;33.10
84114;DHT22;74209;48.846;2.358;2023-11-21T08:56:56;22.10;33.30
84114;DHT22;74209;48.846;2.358;2023-11-21T08:59:24;22.10;33.30
84114;DHT22;74209;48.846;2.358;2023-11-21T09:01:49;22.10;33.30
84114;DHT22;74209;48.846;2.358;2023-11-21T09:04:15;22.10;33.40
84114;DHT22;74209;48.846;2.358;2023-11-21T09:06:41;22.10;33.40
84114;DHT22;74209;48.846;2.358;2023-11-21T09:09:06;22.10;33.50
84114;DHT22;74209;48.846;2.358;2023-11-21T09:11:33;22.10;33.60
84114;DHT22;74209;48.846;2.358;2023-11-21T09:14:00;22.10;33.70
84114;DHT22;74209;48.846;2.358;2023-11-21T09:16:26;22.10;33.60
84114;DHT22;74209;48.846;2.358;2023-11-21T09:18:51;22.10;33.70
84114;DHT22;74209;48.846;2.358;2023-11-21T09:21:17;22.10;33.70
84114;DHT22;74209;48.846;2.358;2023-11-21T09:23:44;22.10;33.80
84114;DHT22;74209;48.846;2.358;2023-11-21T09:26:10;22.00;33.70
84114;DHT22;74209;48.846;2.358;2023-11-21T09:28:35;22.00;33.80
84114;DHT22;74209;48.846;2.358;2023-11-21T09:31:03;22.00;34.00
84114;DHT22;74209;48.846;2.358;2023-11-21T09:33:30;22.00;33.90
84114;DHT22;74209;48.846;2.358;2023-11-21T09:35:57;22.00;34.60
84114;DHT22;74209;48.846;2.358;2023-11-21T09:38:23;22.00;33.90
84114;DHT22;74209;48.846;2.358;2023-11-21T09:40:49;22.10;34.10
84114;DHT22;74209;48.846;2.358;2023-11-21T09:43:19;22.10;34.10
84114;DHT22;74209;48.846;2.358;2023-11-21T09:45:54;22.10;34.10
84114;DHT22;74209;48.846;2.358;2023-11-21T09:48:23;22.00;34.10
84114;DHT22;74209;48.846;2.358;2023-11-21T09:50:50;22.10;34.10
84114;DHT22;74209;48.846;2.358;2023-11-21T09:53:19;22.10;34.20
84114;DHT22;74209;48.846;2.358;2023-11-21T09:55:53;22.10;34.20
84114;DHT22;74209;48.846;2.358;2023-11-21T09:58:20;22.00;34.20
84114;DHT22;74209;48.846;2.358;2023-11-21T10:00:48;22.00;34.30
84114;DHT22;74209;48.846;2.358;2023-11-21T10:03:15;22.00;34.30
84114;DHT22;74209;48.846;2.358;2023-11-21T10:05:45;22.00;34.30
84114;DHT22;74209;48.846;2.358;2023-11-21T10:08:15;22.00;34.30
84114;DHT22;74209;48.846;2.358;2023-11-21T10:10:46;21.90;34.40
84114;DHT22;74209;48.846;2.358;2023-11-21T10:13:14;21.90;34.40
84114;DHT22;74209;48.846;2.358;2023-11-21T10:15:42;22.00;34.40
84114;DHT22;74209;48.846;2.358;2023-11-21T10:18:14;21.90;34.50
84114;DHT22;74209;48.846;2.358;2023-11-21T10:20:40;22.00;34.50
84114;DHT22;74209;48.846;2.358;2023-11-21T10:23:07;22.00;34.50
84114;DHT22;74209;48.846;2.358;2023-11-21T10:25:37;21.90;34.50
84114;DHT22;74209;48.846;2.358;2023-11-21T10:28:03;22.00;34.50
84114;DHT22;74209;48.846;2.358;2023-11-21T10:30:36;21.90;34.50
84114;DHT22;74209;48.846;2.358;2023-11-21T10:33:06;22.00;34.50
84114;DHT22;74209;48.846;2.358;2023-11-21T10:35:48;21.90;34.50
84114;DHT22;74209;48.846;2.358;2023-11-21T10:38:20;22.00;34.40
84114;DHT22;74209;48.846;2.358;2023-11-21T10:40:50;22.00;34.50
84114;DHT22;74209;48.846;2.358;2023-11-21T10:43:16;22.00;34.50
84114;DHT22;74209;48.846;2.358;2023-11-21T10:45:43;22.00;34.50
84114;DHT22;74209;48.846;2.358;2023-11-21T10:48:15;21.90;34.60
84114;DHT22;74209;48.846;2.358;2023-11-21T10:50:41;22.00;34.60
84114;DHT22;74209;48.846;2.358;2023-11-21T10:53:07;22.10;34.70
84114;DHT22;74209;48.846;2.358;2023-11-21T10:55:33;22.20;34.40
84114;DHT22;74209;48.846;2.358;2023-11-21T10:58:01;22.30;34.30
84114;DHT22;74209;48.846;2.358;2023-11-21T11:00:28;22.30;34.10
84114;DHT22;74209;48.846;2.358;2023-11-21T11:02:54;22.40;33.90
84114;DHT22;74209;48.846;2.358;2023-11-21T11:05:22;22.40;33.80
84114;DHT22;74209;48.846;2.358;2023-11-21T11:07:56;22.40;33.70
84114;DHT22;74209;48.846;2.358;2023-11-21T11:10:26;22.50;33.70
84114;DHT22;74209;48.846;2.358;2023-11-21T11:12:53;22.50;33.60
84114;DHT22;74209;48.846;2.358;2023-11-21T11:15:20;22.50;33.50
84114;DHT22;74209;48.846;2.358;2023-11-21T11:17:46;22.50;33.40
84114;DHT22;74209;48.846;2.358;2023-11-21T11:20:14;22.60;33.40
84114;DHT22;74209;48.846;2.358;2023-11-21T11:22:44;22.70;33.30
84114;DHT22;74209;48.846;2.358;2023-11-21T11:25:25;22.70;33.20
84114;DHT22;74209;48.846;2.358;2023-11-21T11:28:15;22.70;33.40
84114;DHT22;74209;48.846;2.358;2023-11-21T11:36:06;22.80;33.40
84114;DHT22;74209;48.846;2.358;2023-11-21T11:38:37;22.70;33.40
84114;DHT22;74209;48.846;2.358;2023-11-21T11:41:04;22.70;33.40
84114;DHT22;74209;48.846;2.358;2023-11-21T11:43:31;22.80;33.30
84114;DHT22;74209;48.846;2.358;2023-11-21T11:45:59;22.80;33.20
84114;DHT22;74209;48.846;2.358;2023-11-21T11:48:25;22.80;33.20
84114;DHT22;74209;48.846;2.358;2023-11-21T11:51:10;22.80;33.20
84114;DHT22;74209;48.846;2.358;2023-11-21T11:53:40;22.90;33.10
84114;DHT22;74209;48.846;2.358;2023-11-21T11:56:28;22.80;33.10
84114;DHT22;74209;48.846;2.358;2023-11-21T11:58:57;22.80;33.00
84114;DHT22;74209;48.846;2.358;2023-11-21T12:01:25;22.90;33.10
84114;DHT22;74209;48.846;2.358;2023-11-21T12:06:57;22.90;33.00
84114;DHT22;74209;48.846;2.358;2023-11-21T12:09:25;22.80;32.90
84114;DHT22;74209;48.846;2.358;2023-11-21T12:11:52;22.90;33.00
84114;DHT22;74209;48.846;2.358;2023-11-21T12:14:18;22.90;32.90
84114;DHT22;74209;48.846;2.358;2023-11-21T12:16:45;22.90;32.90
84114;DHT22;74209;48.846;2.358;2023-11-21T12:19:12;22.90;32.90
84114;DHT22;74209;48.846;2.358;2023-11-21T12:21:38;23.10;32.90
84114;DHT22;74209;48.846;2.358;2023-11-21T12:24:22;23.00;32.80
84114;DHT22;74209;48.846;2.358;2023-11-21T12:29:33;23.00;32.70
84114;DHT22;74209;48.846;2.358;2023-11-21T12:31:59;23.00;32.60
84114;DHT22;74209;48.846;2.358;2023-11-21T12:34:25;22.90;32.90
84114;DHT22;74209;48.846;2.358;2023-11-21T12:36:50;22.90;33.00
84114;DHT22;74209;48.846;2.358;2023-11-21T12:39:17;22.90;32.90
84114;DHT22;74209;48.846;2.358;2023-11-21T12:41:43;22.90;33.00
84114;DHT22;74209;48.846;2.358;2023-11-21T12:44:12;22.90;32.90
84114;DHT22;74209;48.846;2.358;2023-11-21T12:46:42;22.90;32.90
84114;DHT22;74209;48.846;2.358;2023-11-21T12:49:07;22.90;32.80
84114;DHT22;74209;48.846;2.358;2023-11-21T12:51:33;22.90;32.80
84114;DHT22;74209;48.846;2.358;2023-11-21T12:53:59;22.90;32.80
84114;DHT22;74209;48.846;2.358;2023-11-21T12:56:25;22.90;32.80
84114;DHT22;74209;48.846;2.358;2023-11-21T12:58:53;22.90;32.70
84114;DHT22;74209;48.846;2.358;2023-11-21T13:01:19;23.00;32.70
84114;DHT22;74209;48.846;2.358;2023-11-21T13:03:48;23.00;32.70
84114;DHT22;74209;48.846;2.358;2023-11-21T13:06:15;23.00;32.70
84114;DHT22;74209;48.846;2.358;2023-11-21T13:08:41;22.90;32.70
84114;DHT22;74209;48.846;2.358;2023-11-21T13:11:07;23.00;32.70
84114;DHT22;74209;48.846;2.358;2023-11-21T13:13:32;23.00;32.60
84114;DHT22;74209;48.846;2.358;2023-11-21T13:16:00;23.00;32.60
84114;DHT22;74209;48.846;2.358;2023-11-21T13:18:27;23.00;32.50
84114;DHT22;74209;48.846;2.358;2023-11-21T13:21:07;23.00;32.40
84114;DHT22;74209;48.846;2.358;2023-11-21T13:23:38;23.10;32.50
84114;DHT22;74209;48.846;2.358;2023-11-21T13:26:03;23.00;32.40
84114;DHT22;74209;48.846;2.358;2023-11-21T13:28:30;23.10;32.50
84114;DHT22;74209;48.846;2.358;2023-11-21T13:30:58;23.10;32.50
84114;DHT22;74209;48.846;2.358;2023-11-21T13:33:29;23.10;32.40
84114;DHT22;74209;48.846;2.358;2023-11-21T13:35:55;23.10;32.40
84114;DHT22;74209;48.846;2.358;2023-11-21T13:38:22;23.10;32.40
84114;DHT22;74209;48.846;2.358;2023-11-21T13:40:52;23.10;32.30
84114;DHT22;74209;48.846;2.358;2023-11-21T13:43:21;23.10;32.30
84114;DHT22;74209;48.846;2.358;2023-11-21T13:45:48;23.10;32.30
84114;DHT22;74209;48.846;2.358;2023-11-21T13:48:25;23.10;32.20
84114;DHT22;74209;48.846;2.358;2023-11-21T13:50:57;23.10;32.20
84114;DHT22;74209;48.846;2.358;2023-11-21T13:53:34;23.10;32.20
84114;DHT22;74209;48.846;2.358;2023-11-21T13:56:03;23.10;32.10
84114;DHT22;74209;48.846;2.358;2023-11-21T13:58:30;23.10;32.10
84114;DHT22;74209;48.846;2.358;2023-11-21T14:01:16;23.10;32.00
84114;DHT22;74209;48.846;2.358;2023-11-21T14:04:03;23.10;32.00
84114;DHT22;74209;48.846;2.358;2023-11-21T14:06:50;23.10;32.00
84114;DHT22;74209;48.846;2.358;2023-11-21T14:09:21;23.10;32.00
84114;DHT22;74209;48.846;2.358;2023-11-21T14:12:01;23.10;32.00
84114;DHT22;74209;48.846;2.358;2023-11-21T14:14:31;23.10;32.00
84114;DHT22;74209;48.846;2.358;2023-11-21T14:16:56;23.10;31.90
84114;DHT22;74209;48.846;2.358;2023-11-21T14:19:24;23.10;32.00
84114;DHT22;74209;48.846;2.358;2023-11-21T14:21:55;23.10;31.90
84114;DHT22;74209;48.846;2.358;2023-11-21T14:24:21;23.00;31.80
84114;DHT22;74209;48.846;2.358;2023-11-21T14:26:49;23.10;31.90
84114;DHT22;74209;48.846;2.358;2023-11-21T14:29:18;23.00;31.80
84114;DHT22;74209;48.846;2.358;2023-11-21T14:31:49;23.10;31.90
84114;DHT22;74209;48.846;2.358;2023-11-21T14:34:17;23.00;31.80
84114;DHT22;74209;48.846;2.358;2023-11-21T14:36:43;23.00;31.80
84114;DHT22;74209;48.846;2.358;2023-11-21T14:39:10;23.00;31.80
84114;DHT22;74209;48.846;2.358;2023-11-21T14:41:48;23.00;31.80
84114;DHT22;74209;48.846;2.358;2023-11-21T14:44:14;23.00;31.80
84114;DHT22;74209;48.846;2.358;2023-11-21T14:46:41;23.00;31.80
84114;DHT22;74209;48.846;2.358;2023-11-21T14:49:11;23.00;31.80
84114;DHT22;74209;48.846;2.358;2023-11-21T14:51:49;23.00;31.80
84114;DHT22;74209;48.846;2.358;2023-11-21T14:54:32;23.00;31.80
84114;DHT22;74209;48.846;2.358;2023-11-21T14:57:12;23.00;31.80
84114;DHT22;74209;48.846;2.358;2023-11-21T14:59:47;23.00;31.80
84114;DHT22;74209;48.846;2.358;2023-11-21T15:02:16;23.00;31.80
84114;DHT22;74209;48.846;2.358;2023-11-21T15:04:46;23.00;31.80
84114;DHT22;74209;48.846;2.358;2023-11-21T15:07:13;23.00;31.70
84114;DHT22;74209;48.846;2.358;2023-11-21T15:09:38;23.00;31.70
84114;DHT22;74209;48.846;2.358;2023-11-21T15:12:08;23.00;31.70
84114;DHT22;74209;48.846;2.358;2023-11-21T15:14:51;23.00;31.70
84114;DHT22;74209;48.846;2.358;2023-11-21T15:17:23;23.00;31.70
84114;DHT22;74209;48.846;2.358;2023-11-21T15:19:51;23.00;31.80
84114;DHT22;74209;48.846;2.358;2023-11-21T15:22:17;23.00;31.70
84114;DHT22;74209;48.846;2.358;2023-11-21T15:24:43;23.00;31.70
84114;DHT22;74209;48.846;2.358;2023-11-21T15:27:12;23.00;31.70
84114;DHT22;74209;48.846;2.358;2023-11-21T15:29:42;23.00;31.70
84114;DHT22;74209;48.846;2.358;2023-11-21T15:32:08;23.00;31.70
84114;DHT22;74209;48.846;2.358;2023-11-21T15:34:35;22.80;31.90
84114;DHT22;74209;48.846;2.358;2023-11-21T15:37:01;22.70;32.30
84114;DHT22;74209;48.846;2.358;2023-11-21T15:39:28;22.60;32.50
84114;DHT22;74209;48.846;2.358;2023-11-21T15:41:56;22.50;32.70
84114;DHT22;74209;48.846;2.358;2023-11-21T15:44:22;22.50;32.90